• Join FlightAware (Why Join?)
  • Login
  • US Flag 
04:44AM EDT


 

Airport Tracker/Info


-or-


 

Live Flight TrackerFlight Track Log ✈ EJA922 ✈ 21-Jun-2013 ✈ KOKC - KMSY

Flight Track Log - Related Links

Times and Time Zones

All times are in EDT time to prevent confusion due to time zone crossing. See the EJA922 flight status page for this flight to view local times or setup timezone preferences in your user account.

Time Position Orientation Groundspeed Altitude Reporting Facility
EDT Latitude Longitude Course Direction KTS MPH feet Rate Location/Type
06:08PM 35.3853 -97.5919 174° South 144 166 1,900  Level Fort Worth Center
06:09PM 35.3436 -97.5867 174° South 181 208 4,600 2,940 Climbing Fort Worth Center
06:10PM 35.2581 -97.4719 132° Southeast 283 326 9,900 2,160 Climbing Fort Worth Center
06:11PM 35.2103 -97.3958 128° Southeast 300 345 11,000 1,680 Climbing Fort Worth Center
06:12PM 35.1308 -97.2942 134° Southeast 350 403 13,300 2,040 Climbing Fort Worth Center
06:13PM 35.0597 -97.1981 132° Southeast 370 426 15,200 1,800 Climbing Fort Worth Center
06:14PM 34.9844 -97.1019 134° Southeast 382 440 17,000 1,560 Climbing Fort Worth Center
06:15PM 34.9069 -97.0008 133° Southeast 388 447 18,400 1,440 Climbing Fort Worth Center
06:16PM 34.8275 -96.8975 133° Southeast 400 460 20,000 1,500 Climbing Fort Worth Center
06:17PM 34.7478 -96.7892 132° Southeast 416 479 21,400 1,380 Climbing Fort Worth Center
06:18PM 34.6636 -96.6839 134° Southeast 423 487 22,800 1,320 Climbing Fort Worth Center
06:19PM 34.5817 -96.5736 132° Southeast 428 493 24,100 1,260 Climbing Fort Worth Center
06:20PM 34.4931 -96.4636 134° Southeast 438 504 25,400 1,200 Climbing Fort Worth Center
06:21PM 34.4067 -96.3514 133° Southeast 450 518 26,500 1,020 Climbing Fort Worth Center
06:22PM 34.3181 -96.2342 132° Southeast 456 525 27,500 1,020 Climbing Fort Worth Center
06:23PM 34.2272 -96.1175 133° Southeast 463 533 28,600 1,080 Climbing Fort Worth Center
06:24PM 34.1342 -96.0033 135° Southeast 469 540 29,700 1,080 Climbing Fort Worth Center
06:26PM 34.0511 -95.8876 131° Southeast  Level FlightAware Approximate
06:26PM 33.9539 -95.7633 131° Southeast 479 551 32,000  Level Fort Worth Center
06:27PM 33.8606 -95.6475 134° Southeast 479 551 33,800 1,620 Climbing Fort Worth Center
06:28PM 33.7778 -95.5492 135° Southeast 473 544 35,300 1,800 Climbing Fort Worth Center
06:29PM 33.6903 -95.4289 131° Southeast 473 544 37,400 1,980 Climbing Fort Worth Center
06:30PM 33.6028 -95.3111 132° Southeast 473 544 39,300 1,500 Climbing Fort Worth Center
06:31PM 33.5150 -95.1911 131° Southeast 468 539 40,400 840 Climbing Fort Worth Center
06:32PM 33.4144 -95.0542 131° Southeast 487 560 41,000 300 Climbing Fort Worth Center
06:33PM 33.3203 -94.9275 132° Southeast 501 577 41,000  Level Fort Worth Center
06:34PM 33.2281 -94.8033 132° Southeast 508 585 41,000  Level Fort Worth Center
06:35PM 33.1314 -94.6772 132° Southeast 508 585 41,000  Level Fort Worth Center
06:36PM 33.0367 -94.5489 131° Southeast 508 585 41,000  Level Fort Worth Center
06:37PM 32.9397 -94.4208 132° Southeast 508 585 41,000  Level Fort Worth Center
06:38PM 32.8447 -94.2931 131° Southeast 508 585 41,000  Level Fort Worth Center
06:39PM 32.7744 -94.1472 120° Southeast 508 585 41,000  Level Fort Worth Center
06:40PM 32.7075 -93.9917 117° Southeast 511 588 41,000  Level Fort Worth Center
06:41PM 32.6386 -93.8411 118° Southeast 517 595 41,000  Level Fort Worth Center
06:42PM 32.5633 -93.6914 121° Southeast 517 595 41,000  Level Fort Worth Center
06:43PM 32.4800 -93.5544 126° Southeast 517 595 41,000  Level Fort Worth Center
06:45PM 32.3353 -93.3253 127° Southeast 522 601 41,000  Level Houston Center
06:46PM 32.2258 -93.1664 129° Southeast 520 598 41,000  Level Houston Center
06:47PM 32.1353 -93.0317 128° Southeast 522 601 41,000  Level Houston Center
06:48PM 32.0528 -92.9128 129° Southeast 524 603 41,000  Level Houston Center
06:49PM 31.9625 -92.7786 128° Southeast 523 602 41,000  Level Houston Center
06:50PM 31.8581 -92.6144 127° Southeast 520 598 41,000  Level Houston Center
06:51PM 31.7694 -92.4783 127° Southeast 522 601 41,000  Level Houston Center
06:52PM 31.6808 -92.3408 127° Southeast 525 604 41,000 -540 Level Houston Center
06:54PM 31.5900 -92.2061 128° Southeast 526 605 39,900 -1,320 Descending Houston Center
06:55PM 31.4978 -92.0814 131° Southeast 513 590 38,300 -1,860 Descending Houston Center
06:56PM 31.3600 -91.9689 145° Southeast 527 606 36,100 -1,140 Descending Houston Center
06:57PM 31.2317 -91.8692 146° Southeast 526 605 36,000 -540 Descending Houston Center
06:58PM 31.1158 -91.7792 146° Southeast 524 603 35,100 -1,320 Descending Houston Center
06:59PM 30.9933 -91.6833 146° Southeast 526 605 33,300 -1,800 Descending Houston Center
07:00PM 30.8881 -91.5603 135° Southeast 536 617 31,400 -2,160 Descending Houston Center
07:01PM 30.7825 -91.4358 135° Southeast 538 619 28,900 -2,640 Descending Houston Center
07:02PM 30.6364 -91.3400 151° Southeast 532 612 26,000 -2,760 Descending Houston Center
07:03PM 30.5006 -91.2939 164° South 513 590 23,300 -3,000 Descending Houston Center
07:04PM 30.3958 -91.2069 144° Southeast 469 540 19,900 -3,480 Descending Houston Center
07:05PM 30.3267 -91.0875 124° Southeast 430 495 16,600 -3,480 Descending Houston Center
07:06PM 30.2608 -90.9572 120° Southeast 397 457 12,900 -2,820 Descending Houston Center
07:07PM 30.2208 -90.8622 116° Southeast 386 444 11,000 -1,320 Descending Houston Center
07:08PM 30.1761 -90.7508 115° Southeast 332 382 10,400 -1,980 Descending Houston Center
07:09PM 30.1361 -90.6608 117° Southeast 282 325 6,900 -3,060 Descending Houston Center
07:10PM 30.1025 -90.5806 116° Southeast 277 319 4,000 -1,560 Descending Houston Center
07:11PM 30.0692 -90.5047 117° Southeast 265 305 3,800 -780 Descending Houston Center
07:12PM 30.0400 -90.4364 116° Southeast 255 293 2,600 -1,200 Descending Houston Center
07:13PM 30.0194 -90.3794 113° Southeast 181 208 1,500 -840 Descending Houston Center
07:14PM 30.0100 -90.3367 104° East 120 138 900 -660 Descending Houston Center
07:15PM 29.9981 -90.2939 108° East 128 147 200 -720 Descending Houston Center